Time;durP1;ratioP1;P1;durP2;ratioP2;P2;SDS_P1;SDS_P2;PMS_P1;PMS_P2;Temp;Humidity;BMP_temperature;BMP_pressure;BME280_temperature;BME280_humidity;BME280_pressure;Samples;Min_cycle;Max_cycle;Signal;HPM_P1;HPM_P2
2021/01/02 00:01:16;;;;;;;25.65;19.15;;;2.80;99.90;;;;;;4962640;28;20215;-87
2021/01/02 00:04:18;;;;;;;24.10;18.83;;;2.80;99.90;;;;;;4962260;28;20208;-86
2021/01/02 00:06:57;;;;;;;21.40;18.47;;;2.70;99.90;;;;;;4961987;28;20458;-88
2021/01/02 00:09:25;;;;;;;23.27;20.75;;;2.70;99.90;;;;;;4961355;28;20433;-85
2021/01/02 00:12:10;;;;;;;24.97;20.93;;;2.70;99.90;;;;;;4962514;28;20705;-86
2021/01/02 00:15:22;;;;;;;27.13;20.20;;;2.60;99.90;;;;;;4960471;28;20460;-86
2021/01/02 00:18:12;;;;;;;26.70;19.70;;;2.60;99.90;;;;;;4960789;28;20511;-87
2021/01/02 00:21:02;;;;;;;27.88;20.40;;;2.60;99.90;;;;;;4961508;28;21006;-87
2021/01/02 00:24:27;;;;;;;27.57;23.63;;;2.60;99.90;;;;;;5003506;23;20258;-87
2021/01/02 00:27:38;;;;;;;30.10;21.00;;;2.60;99.90;;;;;;4963333;28;20547;-87
2021/01/02 00:36:49;;;;;;;23.00;17.67;;;2.60;99.90;;;;;;4876270;29;20490;-85
2021/01/02 00:40:07;;;;;;;22.33;18.00;;;2.60;99.90;;;;;;4946725;29;20441;-88
2021/01/02 00:42:52;;;;;;;23.75;17.92;;;2.60;99.90;;;;;;4858803;29;20559;-86
2021/01/02 00:45:20;;;;;;;20.10;17.80;;;2.60;99.90;;;;;;4943952;28;20197;-86
2021/01/02 00:47:48;;;;;;;24.00;18.97;;;2.60;99.90;;;;;;4943399;28;20456;-86
2021/01/02 00:50:16;;;;;;;21.85;17.85;;;2.60;99.90;;;;;;4945268;28;21060;-86
2021/01/02 00:53:02;;;;;;;22.00;18.90;;;2.60;99.90;;;;;;4944538;28;20230;-86
2021/01/02 00:55:42;;;;;;;22.40;18.63;;;2.60;99.90;;;;;;4945657;28;20442;-86
2021/01/02 00:58:13;;;;;;;21.30;17.90;;;2.60;99.90;;;;;;4945405;29;20463;-86
2021/01/02 01:00:41;;;;;;;21.42;17.48;;;2.30;99.90;;;;;;4944417;29;21302;-87
2021/01/02 01:03:26;;;;;;;20.87;15.67;;;2.10;99.90;;;;;;4945494;28;20226;-87
2021/01/02 01:05:56;;;;;;;24.80;18.23;;;2.10;99.90;;;;;;4944552;28;20507;-86
2021/01/02 01:08:25;;;;;;;22.10;17.10;;;2.20;99.90;;;;;;4945827;28;20733;-86
2021/01/02 01:10:52;;;;;;;21.58;16.85;;;2.30;99.90;;;;;;4945427;28;20979;-86
2021/01/02 01:13:21;;;;;;;22.13;17.80;;;2.30;99.90;;;;;;4945376;28;20224;-86
2021/01/02 01:15:47;;;;;;;18.07;16.17;;;2.50;99.90;;;;;;4943617;28;20445;-87
2021/01/02 01:18:24;;;;;;;23.30;17.33;;;2.50;99.90;;;;;;4945160;28;20449;-86
2021/01/02 01:20:56;;;;;;;20.27;16.13;;;2.60;99.90;;;;;;4944045;28;20476;-86
2021/01/02 01:23:31;;;;;;;19.23;16.47;;;2.60;99.90;;;;;;4944086;28;20475;-87
2021/01/02 01:26:29;;;;;;;19.63;15.70;;;2.60;99.90;;;;;;4945524;28;20527;-86
2021/01/02 01:28:57;;;;;;;18.53;14.83;;;2.60;99.90;;;;;;4933282;29;20930;-86
2021/01/02 01:31:24;;;;;;;18.47;14.83;;;2.60;99.90;;;;;;4943607;28;20457;-86
2021/01/02 01:33:51;;;;;;;18.73;16.10;;;2.60;99.90;;;;;;4946352;29;20450;-86
2021/01/02 01:36:20;;;;;;;19.80;15.65;;;2.60;99.90;;;;;;4942719;29;20200;-87
2021/01/02 01:38:48;;;;;;;20.00;15.50;;;2.70;99.90;;;;;;4945104;28;20201;-86
2021/01/02 01:41:16;;;;;;;19.80;15.53;;;2.70;99.90;;;;;;4944489;28;21039;-86
2021/01/02 01:44:38;;;;;;;20.70;16.03;;;2.70;99.90;;;;;;4945035;28;20458;-86
2021/01/02 01:47:13;;;;;;;20.43;16.33;;;2.70;99.90;;;;;;4943608;29;20872;-86
2021/01/02 01:50:21;;;;;;;19.80;16.35;;;2.80;99.90;;;;;;4944124;29;20965;-87
2021/01/02 01:57:52;;;;;;;21.70;16.17;;;2.80;99.90;;;;;;4962546;28;20471;-86
2021/01/02 02:00:18;;;;;;;18.53;15.60;;;2.80;99.90;;;;;;4963825;28;20495;-87
2021/01/02 02:03:04;;;;;;;19.47;15.47;;;2.80;99.90;;;;;;4963164;28;20471;-86
2021/01/02 02:05:50;;;;;;;19.10;16.23;;;2.80;99.90;;;;;;4963459;28;20453;-86
2021/01/02 02:08:18;;;;;;;22.73;16.10;;;2.80;99.90;;;;;;4964286;28;20451;-87
2021/01/02 02:10:47;;;;;;;20.43;16.50;;;2.80;99.90;;;;;;4964128;28;20446;-86
2021/01/02 02:13:20;;;;;;;19.80;16.53;;;2.80;99.90;;;;;;4963727;28;20484;-87
2021/01/02 02:15:50;;;;;;;20.50;15.80;;;2.70;99.90;;;;;;4963779;28;20458;-86
2021/01/02 02:18:22;;;;;;;23.00;17.23;;;2.60;99.90;;;;;;4963954;28;21016;-86
2021/01/02 02:20:52;;;;;;;18.77;16.77;;;2.50;99.90;;;;;;4963021;28;20489;-86
2021/01/02 02:23:23;;;;;;;19.17;16.83;;;2.40;99.90;;;;;;4961464;28;20531;-87
2021/01/02 02:25:59;;;;;;;19.30;15.67;;;2.50;99.90;;;;;;4961530;28;20530;-86
2021/01/02 02:29:02;;;;;;;17.90;15.80;;;2.50;99.90;;;;;;4962948;28;20533;-87
2021/01/02 02:31:29;;;;;;;18.23;15.17;;;2.40;99.90;;;;;;4963100;28;20442;-86
2021/01/02 02:33:58;;;;;;;19.67;15.87;;;2.40;99.90;;;;;;4963422;28;20546;-87
2021/01/02 02:36:27;;;;;;;24.73;18.00;;;2.40;99.90;;;;;;4963259;28;20458;-87
2021/01/02 02:38:54;;;;;;;26.60;18.85;;;2.40;99.90;;;;;;4960991;28;20560;-87
2021/01/02 02:41:26;;;;;;;22.50;17.77;;;2.40;99.90;;;;;;4962841;28;20242;-87
2021/01/02 02:43:57;;;;;;;22.50;16.97;;;2.30;99.90;;;;;;4963464;28;20262;-87
2021/01/02 02:46:25;;;;;;;19.40;16.10;;;2.30;99.90;;;;;;4962170;28;21000;-87
2021/01/02 02:48:58;;;;;;;22.30;16.15;;;2.30;99.90;;;;;;4960955;28;20255;-87
2021/01/02 02:51:28;;;;;;;21.10;16.47;;;2.40;99.90;;;;;;4961892;28;20249;-87
2021/01/02 02:53:55;;;;;;;20.10;14.77;;;2.40;99.90;;;;;;4963897;28;20455;-87
2021/01/02 02:56:23;;;;;;;23.30;15.98;;;2.50;99.90;;;;;;4962823;28;20209;-87
2021/01/02 02:58:52;;;;;;;20.55;16.20;;;2.50;99.90;;;;;;4959471;28;20195;-88
2021/01/02 03:01:19;;;;;;;19.55;15.57;;;2.50;99.90;;;;;;4962870;28;20222;-87
2021/01/02 03:03:45;;;;;;;20.97;16.10;;;2.50;99.90;;;;;;4961726;28;20286;-87
2021/01/02 03:06:13;;;;;;;20.13;16.47;;;2.60;99.90;;;;;;4963025;28;20448;-87
2021/01/02 03:08:42;;;;;;;18.83;15.47;;;2.60;99.90;;;;;;4963287;28;20805;-87
2021/01/02 03:11:09;;;;;;;18.83;15.27;;;2.60;99.90;;;;;;4962775;28;20453;-88
2021/01/02 03:13:44;;;;;;;20.20;15.17;;;2.60;99.90;;;;;;4962623;28;20264;-87
2021/01/02 03:16:11;;;;;;;20.60;15.60;;;2.50;99.90;;;;;;4960294;28;20463;-87
2021/01/02 03:18:41;;;;;;;20.23;15.13;;;2.50;99.90;;;;;;4962546;28;20478;-87
2021/01/02 03:21:07;;;;;;;21.47;15.67;;;2.50;99.90;;;;;;4962333;28;20570;-87
2021/01/02 03:23:42;;;;;;;22.98;17.92;;;2.50;99.90;;;;;;4961961;28;20475;-87
2021/01/02 03:26:08;;;;;;;24.77;16.30;;;2.50;99.90;;;;;;4961450;28;20210;-88
2021/01/02 03:28:34;;;;;;;21.13;16.50;;;2.50;99.90;;;;;;4962225;28;20504;-86
2021/01/02 03:31:01;;;;;;;17.27;14.80;;;2.50;99.90;;;;;;4961988;28;20455;-87
2021/01/02 03:33:28;;;;;;;21.50;15.43;;;2.60;99.90;;;;;;4962126;28;20474;-87
2021/01/02 03:35:59;;;;;;;21.67;16.30;;;2.60;99.90;;;;;;4961469;28;20529;-87
2021/01/02 03:38:29;;;;;;;22.27;16.13;;;2.60;99.90;;;;;;4962074;28;20265;-87
2021/01/02 03:40:55;;;;;;;23.93;18.03;;;2.60;99.90;;;;;;4962469;28;20230;-87
2021/01/02 03:43:22;;;;;;;24.00;17.70;;;2.60;99.90;;;;;;4964903;28;20530;-87
2021/01/02 03:45:48;;;;;;;21.48;16.63;;;2.50;99.90;;;;;;4962570;28;20448;-87
2021/01/02 03:48:15;;;;;;;23.53;15.17;;;2.50;99.90;;;;;;4963205;28;20202;-87
2021/01/02 03:50:41;;;;;;;21.17;16.63;;;2.50;99.90;;;;;;4961764;28;20451;-87
2021/01/02 03:53:09;;;;;;;22.67;16.77;;;2.50;99.90;;;;;;4962090;28;20470;-87
2021/01/02 03:55:35;;;;;;;20.50;15.13;;;2.50;99.90;;;;;;4959436;28;21365;-87
2021/01/02 03:58:02;;;;;;;22.83;17.10;;;2.50;99.90;;;;;;4961966;28;20457;-87
2021/01/02 04:00:29;;;;;;;24.93;16.80;;;2.40;99.90;;;;;;4961810;28;20570;-87
2021/01/02 04:02:57;;;;;;;21.60;16.10;;;2.40;99.90;;;;;;4965439;28;20541;-87
2021/01/02 04:05:24;;;;;;;20.83;16.40;;;2.40;99.90;;;;;;4965600;28;20254;-86
2021/01/02 04:07:51;;;;;;;22.17;16.67;;;2.40;99.90;;;;;;4965899;28;20882;-87
2021/01/02 04:10:19;;;;;;;25.07;16.90;;;2.40;99.90;;;;;;4965021;28;20451;-87
2021/01/02 04:12:45;;;;;;;21.75;15.88;;;2.40;99.90;;;;;;4966363;28;20554;-87
2021/01/02 04:15:12;;;;;;;21.13;15.57;;;2.30;99.90;;;;;;4964370;28;20195;-87
2021/01/02 04:17:39;;;;;;;27.13;17.60;;;2.30;99.90;;;;;;4963663;28;20525;-87
2021/01/02 04:20:07;;;;;;;22.02;16.52;;;2.30;99.90;;;;;;4965982;28;20545;-87
2021/01/02 04:22:34;;;;;;;25.95;17.73;;;2.30;99.90;;;;;;4965796;28;20324;-87
2021/01/02 04:25:04;;;;;;;26.70;18.43;;;2.30;99.90;;;;;;4966183;28;20206;-87
2021/01/02 04:27:32;;;;;;;25.27;17.20;;;2.30;99.90;;;;;;4965058;28;20528;-87
2021/01/02 04:29:59;;;;;;;21.40;16.88;;;2.20;99.90;;;;;;4965179;28;20579;-87
2021/01/02 04:32:26;;;;;;;20.33;15.40;;;2.30;99.90;;;;;;4965313;28;20276;-87
2021/01/02 04:34:53;;;;;;;22.30;15.82;;;2.30;99.90;;;;;;4965044;28;20454;-85
2021/01/02 04:37:26;;;;;;;26.48;16.42;;;2.30;99.90;;;;;;4961946;28;20214;-85
2021/01/02 04:39:54;;;;;;;23.93;16.20;;;2.30;99.90;;;;;;4963937;28;20215;-85
2021/01/02 04:42:23;;;;;;;24.65;16.90;;;2.30;99.90;;;;;;4964968;28;21037;-86
2021/01/02 04:44:52;;;;;;;27.70;17.73;;;2.30;99.90;;;;;;4964652;28;20758;-85
2021/01/02 04:47:20;;;;;;;26.33;16.10;;;2.30;99.90;;;;;;4965390;28;20450;-86
2021/01/02 04:49:47;;;;;;;28.60;17.77;;;2.30;99.90;;;;;;4967772;28;20231;-86
2021/01/02 04:52:15;;;;;;;24.77;17.45;;;2.30;99.90;;;;;;4964748;28;20474;-85
2021/01/02 04:54:49;;;;;;;32.03;16.87;;;2.40;99.90;;;;;;4964629;28;20711;-86
2021/01/02 04:57:15;;;;;;;22.80;15.67;;;2.40;99.90;;;;;;4964368;28;20554;-82
2021/01/02 04:59:47;;;;;;;27.67;17.23;;;2.40;99.90;;;;;;4965206;28;20454;-82
2021/01/02 05:02:18;;;;;;;30.08;20.23;;;2.40;99.90;;;;;;4964907;28;20510;-81
2021/01/02 05:04:45;;;;;;;26.03;17.63;;;2.50;99.90;;;;;;4965002;28;20905;-81
2021/01/02 05:07:11;;;;;;;29.67;18.50;;;2.50;99.90;;;;;;4964310;28;20475;-81
2021/01/02 05:09:38;;;;;;;32.92;17.73;;;2.50;99.90;;;;;;4964511;28;20455;-81
2021/01/02 05:12:22;;;;;;;32.17;17.65;;;2.40;99.90;;;;;;4964703;28;20219;-81
2021/01/02 05:14:57;;;;;;;28.90;18.48;;;2.40;99.90;;;;;;4964463;28;20684;-81
2021/01/02 05:17:26;;;;;;;27.73;17.30;;;2.40;99.90;;;;;;4963505;28;20207;-86
2021/01/02 05:20:00;;;;;;;29.70;17.45;;;2.40;99.90;;;;;;4964826;28;20483;-86
2021/01/02 05:22:27;;;;;;;29.75;17.70;;;2.40;99.90;;;;;;4963746;28;20317;-86
2021/01/02 05:25:08;;;;;;;28.97;17.87;;;2.40;99.90;;;;;;4964243;28;20565;-86
2021/01/02 05:27:34;;;;;;;32.83;17.77;;;2.50;99.90;;;;;;4964183;28;20440;-86
2021/01/02 05:30:21;;;;;;;31.20;18.77;;;2.50;99.90;;;;;;4964220;28;20191;-86
2021/01/02 05:32:58;;;;;;;30.70;18.88;;;2.50;99.90;;;;;;4964669;28;20508;-86
2021/01/02 05:35:26;;;;;;;30.58;18.08;;;2.50;99.90;;;;;;4960689;28;20228;-86
2021/01/02 05:37:52;;;;;;;27.55;17.58;;;2.50;99.90;;;;;;4964336;28;20198;-86
2021/01/02 05:40:36;;;;;;;27.50;17.30;;;2.60;99.90;;;;;;4964131;28;20218;-86
2021/01/02 05:43:03;;;;;;;29.40;16.55;;;2.60;99.90;;;;;;4964224;28;20627;-86
2021/01/02 05:45:29;;;;;;;31.85;18.10;;;2.50;99.90;;;;;;4962735;28;20203;-86
2021/01/02 05:47:58;;;;;;;32.60;18.80;;;2.60;99.90;;;;;;4963517;28;20199;-86
2021/01/02 05:50:25;;;;;;;41.03;20.17;;;2.60;99.90;;;;;;4963414;28;20443;-86
2021/01/02 05:52:52;;;;;;;30.23;17.20;;;2.60;99.90;;;;;;4963839;28;20473;-86
2021/01/02 05:55:30;;;;;;;33.90;21.98;;;2.50;99.90;;;;;;4964101;28;20448;-86
2021/01/02 05:58:14;;;;;;;36.60;19.23;;;2.40;99.90;;;;;;4962702;28;20215;-86
2021/01/02 06:00:44;;;;;;;39.63;19.67;;;2.30;99.90;;;;;;4962569;28;20478;-86
2021/01/02 06:03:22;;;;;;;35.60;21.02;;;2.40;99.90;;;;;;4966113;28;20462;-86
2021/01/02 06:05:56;;;;;;;38.50;20.27;;;2.30;99.90;;;;;;4964033;28;20214;-86
2021/01/02 06:08:40;;;;;;;36.28;20.23;;;2.30;99.90;;;;;;4972554;28;20204;-86
2021/01/02 06:11:09;;;;;;;34.22;21.50;;;2.40;99.90;;;;;;4960067;28;20205;-86
2021/01/02 06:13:36;;;;;;;41.65;20.70;;;2.40;99.90;;;;;;4961326;28;20225;-86
2021/01/02 06:16:04;;;;;;;45.10;23.05;;;2.40;99.90;;;;;;4962604;28;20196;-86
2021/01/02 06:18:34;;;;;;;36.17;20.55;;;2.40;99.90;;;;;;4962837;28;20200;-86
2021/01/02 06:21:02;;;;;;;37.23;21.40;;;2.50;99.90;;;;;;4963250;28;20220;-86
2021/01/02 06:23:28;;;;;;;36.10;20.17;;;2.50;99.90;;;;;;4961708;28;20475;-86
2021/01/02 06:25:56;;;;;;;40.80;21.40;;;2.40;99.90;;;;;;4963423;28;20202;-86
2021/01/02 06:28:25;;;;;;;40.47;21.90;;;2.50;99.90;;;;;;4961524;28;20195;-86
2021/01/02 06:30:58;;;;;;;33.95;21.27;;;2.50;99.90;;;;;;4961362;28;20806;-86
2021/01/02 06:33:25;;;;;;;44.38;21.95;;;2.50;99.90;;;;;;4958522;28;20594;-86
2021/01/02 06:35:52;;;;;;;40.00;21.87;;;2.50;99.90;;;;;;4962913;28;20204;-86
2021/01/02 06:38:19;;;;;;;32.13;19.50;;;2.50;99.90;;;;;;4963524;28;20956;-86
2021/01/02 06:40:47;;;;;;;38.80;22.27;;;2.50;99.90;;;;;;4963250;28;20591;-86
2021/01/02 06:43:16;;;;;;;38.13;21.30;;;2.50;99.90;;;;;;4962598;28;20296;-85
2021/01/02 06:45:54;;;;;;;36.40;22.15;;;2.60;99.90;;;;;;4961827;28;20262;-86
2021/01/02 06:48:34;;;;;;;34.72;19.75;;;2.60;99.90;;;;;;4961180;28;20213;-85
2021/01/02 06:51:03;;;;;;;37.83;21.63;;;2.50;99.90;;;;;;4962827;28;20296;-86
2021/01/02 06:53:31;;;;;;;36.50;20.17;;;2.50;99.90;;;;;;4962846;28;20231;-86
2021/01/02 06:55:59;;;;;;;30.13;18.30;;;2.50;99.90;;;;;;4963040;28;20645;-86
2021/01/02 06:58:34;;;;;;;32.53;20.10;;;2.60;99.90;;;;;;4961975;28;20454;-86
2021/01/02 07:01:01;;;;;;;29.45;18.95;;;2.60;99.90;;;;;;4962461;28;20269;-86
2021/01/02 07:03:45;;;;;;;35.88;20.58;;;2.50;99.90;;;;;;4962603;28;20223;-86
2021/01/02 07:06:22;;;;;;;33.08;19.98;;;2.60;99.90;;;;;;4961604;28;20295;-86
2021/01/02 07:08:49;;;;;;;34.40;19.88;;;2.60;99.90;;;;;;4964067;28;20203;-86
2021/01/02 07:11:33;;;;;;;37.53;21.03;;;2.60;99.90;;;;;;4962305;28;20216;-86
2021/01/02 07:14:25;;;;;;;35.90;19.35;;;2.50;99.90;;;;;;4962025;28;20466;-86
2021/01/02 07:16:57;;;;;;;41.53;20.87;;;2.60;99.90;;;;;;4962466;28;20198;-86
2021/01/02 07:19:29;;;;;;;34.43;20.83;;;2.60;99.90;;;;;;4961119;28;20446;-86
2021/01/02 07:21:58;;;;;;;40.23;21.13;;;2.50;99.90;;;;;;4961568;28;20486;-86
2021/01/02 07:24:25;;;;;;;33.27;19.07;;;2.60;99.90;;;;;;4960285;28;21028;-86
2021/01/02 07:26:56;;;;;;;36.50;21.52;;;2.60;99.90;;;;;;4962403;28;20442;-86
2021/01/02 07:29:23;;;;;;;31.37;19.00;;;2.60;99.90;;;;;;4960761;28;20199;-85
2021/01/02 07:31:49;;;;;;;38.47;21.23;;;2.60;99.90;;;;;;4962069;28;20463;-86
2021/01/02 07:34:22;;;;;;;36.17;18.87;;;2.60;99.90;;;;;;4960923;28;20462;-85
2021/01/02 07:36:49;;;;;;;37.77;21.67;;;2.60;99.90;;;;;;4962453;28;20439;-86
2021/01/02 07:39:17;;;;;;;33.63;20.97;;;2.60;99.90;;;;;;4962460;28;20450;-86
2021/01/02 07:41:43;;;;;;;32.00;20.37;;;2.60;99.90;;;;;;4962520;28;20495;-86
2021/01/02 07:44:09;;;;;;;33.43;20.10;;;2.60;99.90;;;;;;4961135;28;20451;-86
2021/01/02 07:46:42;;;;;;;32.57;19.37;;;2.60;99.90;;;;;;4961907;28;20450;-86
2021/01/02 07:49:09;;;;;;;29.85;19.05;;;2.70;99.90;;;;;;4961266;28;20535;-86
2021/01/02 07:51:36;;;;;;;27.10;18.97;;;2.70;99.90;;;;;;4960036;28;20208;-86
2021/01/02 07:54:02;;;;;;;28.77;18.27;;;2.70;99.90;;;;;;4961554;28;20453;-86
2021/01/02 07:56:33;;;;;;;33.80;21.77;;;2.70;99.90;;;;;;4961124;28;20498;-85
2021/01/02 07:59:19;;;;;;;31.67;19.47;;;2.70;99.90;;;;;;4961975;28;20947;-86
2021/01/02 08:01:49;;;;;;;29.83;18.57;;;2.70;99.90;;;;;;4961347;28;20503;-85
2021/01/02 08:04:15;;;;;;;31.53;21.10;;;2.80;99.90;;;;;;4961721;28;20450;-85
2021/01/02 08:06:44;;;;;;;30.00;18.70;;;2.70;99.90;;;;;;4961161;28;20474;-85
2021/01/02 08:09:10;;;;;;;30.70;18.23;;;2.70;99.90;;;;;;4961688;28;20478;-85
2021/01/02 08:11:38;;;;;;;27.80;18.10;;;2.70;99.90;;;;;;4961555;28;20462;-86
2021/01/02 08:14:04;;;;;;;24.73;17.90;;;2.80;99.90;;;;;;4959926;28;20503;-85
2021/01/02 08:16:30;;;;;;;27.37;16.63;;;2.80;99.90;;;;;;4961150;28;20497;-86
2021/01/02 08:19:04;;;;;;;30.17;19.30;;;2.80;99.90;;;;;;4961755;28;20532;-86
2021/01/02 08:21:37;;;;;;;31.80;20.00;;;2.80;99.90;;;;;;4961452;28;20581;-86
2021/01/02 08:24:03;;;;;;;28.63;18.60;;;2.80;99.90;;;;;;4962609;28;20987;-85
2021/01/02 08:26:30;;;;;;;33.07;19.90;;;2.80;99.90;;;;;;4961113;28;21048;-86
2021/01/02 08:28:57;;;;;;;22.03;17.10;;;2.80;99.90;;;;;;4961381;28;20454;-85
2021/01/02 08:31:25;;;;;;;27.00;17.77;;;2.80;99.90;;;;;;4961836;28;20448;-86
2021/01/02 08:33:52;;;;;;;30.30;18.87;;;2.80;99.90;;;;;;4959924;28;20455;-86
2021/01/02 08:36:19;;;;;;;32.00;20.03;;;2.90;99.90;;;;;;4961034;28;20432;-86
2021/01/02 08:38:45;;;;;;;33.07;20.00;;;2.90;99.90;;;;;;4961343;28;20473;-86
2021/01/02 08:41:19;;;;;;;30.83;21.33;;;2.90;99.90;;;;;;4961165;28;20485;-86
2021/01/02 08:43:47;;;;;;;27.93;18.53;;;2.90;99.90;;;;;;4960674;28;20459;-86
2021/01/02 08:46:21;;;;;;;29.77;18.70;;;3.00;99.90;;;;;;4961863;28;20544;-86
2021/01/02 08:48:47;;;;;;;31.20;20.23;;;3.00;99.90;;;;;;4965425;28;20520;-86
2021/01/02 08:51:24;;;;;;;30.60;20.50;;;3.10;99.90;;;;;;4964618;28;20454;-87
2021/01/02 08:53:50;;;;;;;33.63;21.63;;;3.00;99.90;;;;;;4965095;28;20447;-86
2021/01/02 08:56:24;;;;;;;30.40;18.63;;;3.10;99.90;;;;;;4964155;28;20845;-86
2021/01/02 08:58:50;;;;;;;30.17;20.13;;;3.00;99.90;;;;;;4964790;28;20452;-87
2021/01/02 09:01:18;;;;;;;27.57;19.40;;;3.00;99.90;;;;;;4964142;28;20557;-86
2021/01/02 09:03:44;;;;;;;30.50;19.33;;;3.00;99.90;;;;;;4964619;28;20454;-86
2021/01/02 09:06:18;;;;;;;28.43;19.30;;;3.00;99.90;;;;;;4964241;28;20501;-86
2021/01/02 09:08:44;;;;;;;27.73;17.70;;;3.00;99.90;;;;;;4964600;28;20531;-86
2021/01/02 09:11:10;;;;;;;25.77;18.73;;;3.10;99.90;;;;;;4964165;28;20451;-87
2021/01/02 09:13:36;;;;;;;30.00;21.80;;;3.10;99.90;;;;;;4965029;28;20523;-87
2021/01/02 09:16:05;;;;;;;32.53;19.97;;;3.00;99.90;;;;;;4963996;28;20448;-87
2021/01/02 09:18:43;;;;;;;32.77;20.23;;;3.10;99.90;;;;;;4964373;28;21009;-87
2021/01/02 09:21:23;;;;;;;34.07;19.73;;;3.00;99.90;;;;;;4962731;28;20566;-87
2021/01/02 09:23:49;;;;;;;32.50;20.83;;;3.10;99.90;;;;;;4964701;28;20478;-86
2021/01/02 09:26:21;;;;;;;32.40;18.43;;;3.10;99.90;;;;;;4964457;28;20440;-85
2021/01/02 09:28:47;;;;;;;34.50;19.03;;;3.10;99.90;;;;;;4964760;28;20455;-85
2021/01/02 09:31:14;;;;;;;36.33;21.53;;;3.20;99.90;;;;;;4964736;28;20448;-86
2021/01/02 09:33:41;;;;;;;40.50;21.60;;;3.20;99.90;;;;;;4964667;28;20479;-86
2021/01/02 09:36:08;;;;;;;31.60;21.67;;;3.30;99.90;;;;;;4962333;28;20494;-86
2021/01/02 09:38:34;;;;;;;33.10;21.37;;;3.30;99.90;;;;;;4964267;28;20445;-86
2021/01/02 09:41:01;;;;;;;37.37;23.77;;;3.30;99.90;;;;;;4963877;28;20482;-86
2021/01/02 09:43:28;;;;;;;45.07;23.20;;;3.30;99.90;;;;;;4963648;28;20468;-85
2021/01/02 09:45:55;;;;;;;39.73;21.73;;;3.40;99.90;;;;;;4964001;28;20448;-86
2021/01/02 09:48:21;;;;;;;38.70;23.47;;;3.50;99.90;;;;;;4964194;28;20432;-86
2021/01/02 09:50:47;;;;;;;38.20;23.97;;;3.50;99.90;;;;;;4964524;28;20444;-87
2021/01/02 09:53:14;;;;;;;36.67;20.43;;;3.60;99.90;;;;;;4964839;28;20473;-87
2021/01/02 09:55:41;;;;;;;34.50;21.57;;;3.70;99.90;;;;;;4964020;28;20480;-86
2021/01/02 09:58:09;;;;;;;33.03;21.63;;;3.70;99.90;;;;;;4961326;28;20444;-86
2021/01/02 10:00:35;;;;;;;32.50;22.00;;;3.70;99.90;;;;;;4963380;28;21044;-87
2021/01/02 10:03:01;;;;;;;35.30;21.83;;;3.70;99.90;;;;;;4963731;28;20998;-87
2021/01/02 10:05:27;;;;;;;33.40;22.53;;;3.80;99.90;;;;;;4963020;28;20444;-86
2021/01/02 10:07:54;;;;;;;32.07;20.87;;;3.90;99.90;;;;;;4965721;28;20445;-85
2021/01/02 10:10:21;;;;;;;27.47;19.90;;;4.00;99.90;;;;;;4963025;28;20472;-87
2021/01/02 10:12:49;;;;;;;27.93;18.27;;;4.10;99.90;;;;;;4965011;28;20467;-91
2021/01/02 10:15:17;;;;;;;27.33;18.80;;;4.20;99.90;;;;;;4962356;28;20447;-88
2021/01/02 10:17:44;;;;;;;25.17;17.37;;;4.30;99.90;;;;;;4963216;28;20448;-87
2021/01/02 10:20:13;;;;;;;24.90;17.90;;;4.30;99.90;;;;;;4963640;28;20445;-87
2021/01/02 10:22:39;;;;;;;23.67;16.20;;;4.40;99.90;;;;;;4962023;28;20473;-87
2021/01/02 10:25:07;;;;;;;24.40;17.67;;;4.30;99.90;;;;;;4962760;28;20445;-87
2021/01/02 10:27:33;;;;;;;23.20;17.30;;;4.40;99.90;;;;;;4962947;28;20449;-88
2021/01/02 10:29:59;;;;;;;25.63;17.63;;;4.50;99.90;;;;;;4962788;28;20452;-87
2021/01/02 10:32:29;;;;;;;24.17;17.20;;;4.50;99.90;;;;;;4963281;28;20476;-90
2021/01/02 10:34:55;;;;;;;23.93;17.93;;;4.50;99.90;;;;;;4965103;28;20456;-87
2021/01/02 10:37:23;;;;;;;24.40;17.10;;;4.70;99.90;;;;;;4965601;28;20452;-87
2021/01/02 10:39:50;;;;;;;23.50;17.20;;;4.90;99.90;;;;;;4979165;28;20507;-86
2021/01/02 10:42:22;;;;;;;21.40;16.63;;;4.90;99.90;;;;;;4960960;28;20500;-87
2021/01/02 10:44:48;;;;;;;23.20;16.83;;;4.90;99.90;;;;;;4963350;28;21121;-87
2021/01/02 10:47:18;;;;;;;21.40;17.37;;;5.00;99.90;;;;;;4963432;28;20441;-87
2021/01/02 10:49:45;;;;;;;20.07;16.97;;;5.10;99.90;;;;;;4963233;28;20462;-87
2021/01/02 10:52:14;;;;;;;23.37;17.70;;;5.20;99.90;;;;;;4963820;28;20460;-89
2021/01/02 10:54:43;;;;;;;24.17;18.60;;;5.20;99.90;;;;;;4964484;28;20965;-89
2021/01/02 10:57:09;;;;;;;22.00;17.43;;;5.20;99.90;;;;;;4963362;28;20548;-87
2021/01/02 10:59:35;;;;;;;20.60;16.50;;;5.30;99.90;;;;;;4960186;28;20457;-79
2021/01/02 11:02:02;;;;;;;22.07;17.77;;;5.20;99.90;;;;;;4962639;28;20489;-79
2021/01/02 11:04:28;;;;;;;24.93;17.53;;;5.10;99.90;;;;;;4961996;28;20451;-79
2021/01/02 11:06:55;;;;;;;22.67;17.57;;;5.20;99.90;;;;;;4962773;28;20436;-79
2021/01/02 11:09:23;;;;;;;25.70;17.23;;;5.20;99.90;;;;;;4962408;28;20503;-79
2021/01/02 11:11:51;;;;;;;23.13;18.13;;;5.40;99.90;;;;;;4962764;28;20985;-86
2021/01/02 11:14:18;;;;;;;22.70;16.83;;;5.40;99.90;;;;;;4962899;28;20448;-87
2021/01/02 11:16:45;;;;;;;21.90;17.00;;;5.40;99.90;;;;;;4963844;28;20453;-86
2021/01/02 11:19:12;;;;;;;22.20;16.90;;;5.50;99.90;;;;;;4962322;28;20942;-88
2021/01/02 11:21:39;;;;;;;24.27;19.47;;;5.60;99.90;;;;;;4963883;28;20491;-88
2021/01/02 11:24:07;;;;;;;22.97;18.43;;;5.60;99.90;;;;;;4962097;28;20449;-85
2021/01/02 11:26:34;;;;;;;25.00;18.53;;;5.50;99.90;;;;;;4960775;28;20543;-85
2021/01/02 11:29:00;;;;;;;19.10;15.97;;;5.40;99.90;;;;;;4963010;28;20440;-85
2021/01/02 11:31:30;;;;;;;24.40;17.17;;;5.20;99.90;;;;;;4962652;28;20445;-86
2021/01/02 11:33:57;;;;;;;20.10;17.10;;;5.10;99.90;;;;;;4963074;28;20456;-85
2021/01/02 11:36:24;;;;;;;21.90;16.00;;;5.10;99.90;;;;;;4962093;28;20445;-86
2021/01/02 11:38:50;;;;;;;23.23;18.97;;;5.20;99.90;;;;;;4962194;28;20441;-85
2021/01/02 11:41:19;;;;;;;24.87;20.20;;;5.00;99.90;;;;;;4961059;28;20481;-85
2021/01/02 11:43:46;;;;;;;24.87;18.27;;;5.10;99.90;;;;;;4961864;28;20464;-86
2021/01/02 11:46:12;;;;;;;23.23;18.40;;;5.00;99.90;;;;;;4961657;28;20441;-86
2021/01/02 11:48:40;;;;;;;24.10;17.03;;;4.90;99.90;;;;;;4962117;28;20462;-85
2021/01/02 11:51:12;;;;;;;24.27;17.87;;;4.70;99.90;;;;;;4960116;28;20868;-86
2021/01/02 11:53:39;;;;;;;24.17;17.47;;;4.70;99.90;;;;;;4959996;28;20929;-85
2021/01/02 11:56:05;;;;;;;23.20;18.10;;;4.60;99.90;;;;;;4961404;28;20997;-86
2021/01/02 11:58:33;;;;;;;24.40;16.70;;;4.60;99.90;;;;;;4960698;28;20518;-87
2021/01/02 12:00:59;;;;;;;31.13;21.80;;;4.60;99.90;;;;;;4962439;28;20485;-87
2021/01/02 12:03:25;;;;;;;24.70;17.97;;;4.60;99.90;;;;;;4962445;28;20510;-87
2021/01/02 12:05:51;;;;;;;22.77;15.80;;;4.60;99.90;;;;;;4958721;28;20455;-86
2021/01/02 12:08:17;;;;;;;166.97;122.60;;;4.50;99.90;;;;;;4962089;28;20454;-87
2021/01/02 12:10:44;;;;;;;22.73;17.47;;;4.50;99.90;;;;;;4962375;28;20456;-86
2021/01/02 12:13:10;;;;;;;24.07;18.40;;;4.50;99.90;;;;;;4961596;28;20499;-87
2021/01/02 12:15:37;;;;;;;24.60;17.93;;;4.50;99.90;;;;;;4961433;28;20456;-87
2021/01/02 12:18:03;;;;;;;21.90;17.47;;;4.50;99.90;;;;;;4961751;28;20501;-88
2021/01/02 12:20:30;;;;;;;25.53;18.50;;;4.50;99.90;;;;;;4961140;28;20495;-87
2021/01/02 12:22:56;;;;;;;25.03;17.73;;;4.40;99.90;;;;;;4964349;28;20468;-88
2021/01/02 12:25:23;;;;;;;23.23;17.83;;;4.40;99.90;;;;;;4965505;28;20444;-88
2021/01/02 12:27:49;;;;;;;22.10;17.90;;;4.50;99.90;;;;;;4966005;28;20471;-88
2021/01/02 12:30:17;;;;;;;20.47;14.73;;;4.50;99.90;;;;;;4962308;28;20474;-86
2021/01/02 12:32:44;;;;;;;23.53;17.40;;;4.50;99.90;;;;;;4964495;28;20464;-87
2021/01/02 12:35:11;;;;;;;23.97;17.70;;;4.50;99.90;;;;;;4965264;28;20436;-87
2021/01/02 12:37:37;;;;;;;26.93;18.63;;;4.50;99.90;;;;;;4964757;28;20466;-86
2021/01/02 12:40:05;;;;;;;23.53;18.83;;;4.50;99.90;;;;;;4964887;28;20453;-87
2021/01/02 12:42:36;;;;;;;26.80;21.23;;;4.50;99.90;;;;;;4962703;28;20487;-87
2021/01/02 12:45:02;;;;;;;26.93;18.27;;;4.60;99.90;;;;;;4964992;28;20969;-87
2021/01/02 12:47:30;;;;;;;24.30;17.37;;;4.60;99.90;;;;;;4964701;28;20452;-89
2021/01/02 12:49:57;;;;;;;24.27;18.77;;;4.50;99.90;;;;;;4964682;28;20440;-88
2021/01/02 12:52:23;;;;;;;25.20;18.07;;;4.50;99.90;;;;;;4962189;28;20457;-87
2021/01/02 12:54:49;;;;;;;25.27;18.33;;;4.50;99.90;;;;;;4962013;28;20981;-88
2021/01/02 12:57:15;;;;;;;26.77;21.03;;;4.50;99.90;;;;;;4958811;28;20472;-88
2021/01/02 12:59:41;;;;;;;25.00;18.53;;;4.50;99.90;;;;;;4967037;28;20450;-88
2021/01/02 13:02:11;;;;;;;24.97;17.70;;;4.60;99.90;;;;;;4966316;28;20484;-87
2021/01/02 13:04:38;;;;;;;28.13;19.77;;;4.60;99.90;;;;;;4962844;28;20535;-87